Time;durP1;ratioP1;P1;durP2;ratioP2;P2;SDS_P1;SDS_P2;PMS_P1;PMS_P2;Temp;Humidity;BMP_temperature;BMP_pressure;BME280_temperature;BME280_humidity;BME280_pressure;Samples;Min_cycle;Max_cycle;Signal;HPM_P1;HPM_P2
2020/12/18 00:00:07;;;;;;;21.67;11.00;;;8.40;91.70;;;;;;5011913;28;20041;-74
2020/12/18 00:02:33;;;;;;;23.20;11.50;;;8.30;91.60;;;;;;5010020;28;20082;-74
2020/12/18 00:05:00;;;;;;;23.65;11.73;;;8.20;91.50;;;;;;5011468;28;20569;-74
2020/12/18 00:07:26;;;;;;;25.53;12.87;;;8.10;91.50;;;;;;5010453;28;20192;-74
2020/12/18 00:09:52;;;;;;;28.20;13.03;;;8.00;91.50;;;;;;5011364;28;20088;-74
2020/12/18 00:12:18;;;;;;;22.60;12.00;;;7.90;91.60;;;;;;5009839;28;20044;-74
2020/12/18 00:14:44;;;;;;;26.67;13.20;;;7.80;91.60;;;;;;5011593;28;20045;-74
2020/12/18 00:17:10;;;;;;;21.27;12.43;;;7.70;91.70;;;;;;4993608;28;20380;-73
2020/12/18 00:19:36;;;;;;;26.17;12.90;;;7.60;91.70;;;;;;5011502;28;20498;-74
2020/12/18 00:22:01;;;;;;;25.20;12.27;;;7.60;91.80;;;;;;5042387;28;20042;-74
2020/12/18 00:24:27;;;;;;;24.20;12.83;;;7.50;91.80;;;;;;5010246;28;20179;-74
2020/12/18 00:26:53;;;;;;;23.57;12.00;;;7.50;92.00;;;;;;5011447;28;20410;-74
2020/12/18 00:29:19;;;;;;;22.97;12.43;;;7.40;92.10;;;;;;5009999;28;20057;-74
2020/12/18 00:31:44;;;;;;;24.00;12.13;;;7.40;91.90;;;;;;5010855;28;20037;-74
2020/12/18 00:34:10;;;;;;;26.20;13.37;;;7.40;91.80;;;;;;5010789;28;20065;-74
2020/12/18 00:36:36;;;;;;;26.83;12.73;;;7.30;92.00;;;;;;5011152;28;20121;-74
2020/12/18 00:39:04;;;;;;;27.70;13.53;;;7.20;91.90;;;;;;5011390;28;20112;-74
2020/12/18 00:41:31;;;;;;;23.80;12.57;;;7.20;91.90;;;;;;4993078;28;20522;-74
2020/12/18 00:43:57;;;;;;;30.10;13.80;;;7.10;91.80;;;;;;5010866;28;20572;-74
2020/12/18 00:46:23;;;;;;;27.97;13.90;;;7.00;92.00;;;;;;5010740;28;20517;-74
2020/12/18 00:48:49;;;;;;;32.93;14.43;;;6.90;92.10;;;;;;5011116;28;20049;-74
2020/12/18 00:51:16;;;;;;;23.43;12.53;;;6.90;92.00;;;;;;5009901;28;20060;-74
2020/12/18 00:53:42;;;;;;;29.00;14.50;;;6.90;92.10;;;;;;5010273;28;20099;-74
2020/12/18 00:56:08;;;;;;;26.53;13.73;;;6.80;92.30;;;;;;5011101;28;20046;-74
2020/12/18 00:58:37;;;;;;;25.87;13.60;;;6.90;92.70;;;;;;5009301;28;20502;-74
2020/12/18 01:01:04;;;;;;;28.80;13.60;;;6.90;92.60;;;;;;5009842;28;20064;-74
2020/12/18 01:03:30;;;;;;;31.20;13.30;;;6.90;92.70;;;;;;5010441;28;20038;-74
2020/12/18 01:05:56;;;;;;;26.50;13.87;;;6.90;92.60;;;;;;4993077;28;20041;-74
2020/12/18 01:08:22;;;;;;;28.30;13.53;;;7.00;92.80;;;;;;5010983;28;20045;-74
2020/12/18 01:10:48;;;;;;;24.43;13.00;;;7.00;92.90;;;;;;5042223;28;20038;-74
2020/12/18 01:13:14;;;;;;;24.17;12.57;;;7.00;93.00;;;;;;5042211;28;20402;-74
2020/12/18 01:15:41;;;;;;;25.30;11.90;;;7.10;93.00;;;;;;5042398;28;20042;-74
2020/12/18 01:18:24;;;;;;;23.33;12.27;;;7.20;93.10;;;;;;5028272;28;20030;-74
2020/12/18 01:20:51;;;;;;;22.63;11.67;;;7.20;93.10;;;;;;5010582;28;20049;-72
2020/12/18 01:23:18;;;;;;;21.73;11.83;;;7.30;93.00;;;;;;5010396;28;20100;-74
2020/12/18 01:25:49;;;;;;;21.30;11.00;;;7.40;93.00;;;;;;5009566;28;20065;-74
2020/12/18 01:28:15;;;;;;;23.77;11.07;;;7.40;93.00;;;;;;5010602;28;20115;-74
2020/12/18 01:30:41;;;;;;;20.43;10.83;;;7.50;93.00;;;;;;5012933;28;20046;-74
2020/12/18 01:33:06;;;;;;;19.30;10.80;;;7.50;93.00;;;;;;5013680;28;20069;-74
2020/12/18 01:35:35;;;;;;;16.83;9.80;;;7.60;93.00;;;;;;5013342;28;20034;-74
2020/12/18 01:38:04;;;;;;;18.43;10.30;;;7.60;93.00;;;;;;4997944;28;20451;-68
2020/12/18 01:40:32;;;;;;;24.27;10.23;;;7.60;93.00;;;;;;5046061;28;20034;-68
2020/12/18 01:43:01;;;;;;;18.57;9.87;;;7.70;93.00;;;;;;5012374;28;20080;-67
2020/12/18 01:45:27;;;;;;;19.00;10.30;;;7.70;92.90;;;;;;5012759;28;20499;-68
2020/12/18 01:48:12;;;;;;;18.73;9.27;;;7.70;92.90;;;;;;5046285;28;20732;-68
2020/12/18 01:50:50;;;;;;;;;;;7.70;93.10;;;;;;5014468;28;20048;-69
2020/12/18 01:53:21;;;;;;;18.33;9.77;;;7.80;92.90;;;;;;5012600;28;20264;-67
2020/12/18 01:56:05;;;;;;;20.00;10.03;;;7.80;92.80;;;;;;4998581;28;20056;-68
2020/12/18 01:58:34;;;;;;;18.57;9.60;;;7.80;92.80;;;;;;5012898;28;20518;-67
2020/12/18 02:01:06;;;;;;;15.67;9.43;;;7.80;93.00;;;;;;5012248;28;20041;-68
2020/12/18 02:03:41;;;;;;;19.80;9.87;;;7.80;92.80;;;;;;5045317;28;20038;-67
2020/12/18 02:06:16;;;;;;;20.67;9.43;;;7.90;92.70;;;;;;5045471;28;20088;-67
2020/12/18 02:08:49;;;;;;;18.83;9.63;;;7.90;92.70;;;;;;5012694;28;20112;-68
2020/12/18 02:11:42;;;;;;;21.93;10.00;;;7.90;92.60;;;;;;5014670;28;20034;-67
2020/12/18 02:14:15;;;;;;;18.57;9.40;;;7.90;92.60;;;;;;5045135;28;20046;-68
2020/12/18 02:16:45;;;;;;;18.25;9.25;;;7.90;92.60;;;;;;4996422;28;20125;-68
2020/12/18 02:19:19;;;;;;;16.43;9.63;;;7.90;92.60;;;;;;5045671;28;20038;-67
2020/12/18 02:21:46;;;;;;;17.73;9.87;;;7.90;92.60;;;;;;5011445;28;20038;-68
2020/12/18 02:24:27;;;;;;;17.93;9.37;;;7.90;92.50;;;;;;5012260;28;20557;-68
2020/12/18 02:26:57;;;;;;;23.53;9.63;;;7.90;92.50;;;;;;5012983;28;20561;-67
2020/12/18 02:29:27;;;;;;;20.87;9.53;;;7.90;92.40;;;;;;5045421;28;20080;-67
2020/12/18 02:32:03;;;;;;;15.47;9.20;;;7.90;92.40;;;;;;5012559;28;20042;-68
2020/12/18 02:34:41;;;;;;;18.73;10.13;;;7.90;92.40;;;;;;5045406;28;20458;-67
2020/12/18 02:37:14;;;;;;;16.97;9.33;;;7.90;92.40;;;;;;5044842;28;20037;-68
2020/12/18 02:39:40;;;;;;;16.87;9.50;;;7.90;92.40;;;;;;5013361;28;20410;-67
2020/12/18 02:42:22;;;;;;;19.83;9.77;;;7.90;92.40;;;;;;5043562;28;20042;-68
2020/12/18 02:44:51;;;;;;;16.77;9.40;;;8.00;92.30;;;;;;5045089;28;20042;-68
2020/12/18 02:47:37;;;;;;;17.97;9.47;;;8.00;92.30;;;;;;5012719;28;20038;-67
2020/12/18 02:50:09;;;;;;;18.77;10.17;;;8.00;92.20;;;;;;5045084;28;20095;-67
2020/12/18 02:52:45;;;;;;;17.93;9.93;;;8.00;92.20;;;;;;5044408;28;20033;-68
2020/12/18 02:55:37;;;;;;;16.27;9.50;;;8.00;92.10;;;;;;5012886;28;20038;-67
2020/12/18 02:58:21;;;;;;;17.03;9.57;;;8.10;92.20;;;;;;5013299;28;20049;-67
2020/12/18 03:00:53;;;;;;;19.97;10.37;;;8.00;92.10;;;;;;5011489;28;20041;-68
2020/12/18 03:03:22;;;;;;;17.80;9.90;;;8.00;92.00;;;;;;5043916;28;20117;-67
2020/12/18 03:05:51;;;;;;;20.23;10.47;;;8.00;92.00;;;;;;5011128;28;20121;-67
2020/12/18 03:08:24;;;;;;;20.20;10.63;;;8.00;92.00;;;;;;5011549;28;20034;-68
2020/12/18 03:10:51;;;;;;;18.47;10.50;;;8.00;91.90;;;;;;4995173;28;20061;-68
2020/12/18 03:13:17;;;;;;;16.90;9.83;;;8.00;91.90;;;;;;5012136;28;20088;-67
2020/12/18 03:15:42;;;;;;;17.33;10.53;;;8.00;91.80;;;;;;5012647;28;20041;-67
2020/12/18 03:18:22;;;;;;;18.23;10.97;;;8.00;91.80;;;;;;5044499;28;20387;-68
2020/12/18 03:20:49;;;;;;;18.90;11.10;;;8.00;91.80;;;;;;4995077;28;20799;-68
2020/12/18 03:23:33;;;;;;;18.97;10.93;;;8.00;91.80;;;;;;5011640;28;20130;-68
2020/12/18 03:26:34;;;;;;;;;;;8.00;91.80;;;;;;5023868;28;20042;-67
2020/12/18 03:29:08;;;;;;;19.63;11.47;;;7.90;91.80;;;;;;5011259;28;20345;-67
2020/12/18 03:31:36;;;;;;;18.47;11.40;;;8.00;91.80;;;;;;5043614;28;20046;-67
2020/12/18 03:34:03;;;;;;;19.70;11.47;;;7.90;91.80;;;;;;5044083;28;20065;-67
2020/12/18 03:37:04;;;;;;;18.50;11.17;;;8.00;91.80;;;;;;4997702;28;20507;-67
2020/12/18 03:39:30;;;;;;;19.00;11.63;;;7.90;91.80;;;;;;5006750;28;20037;-67
2020/12/18 03:42:16;;;;;;;21.67;11.37;;;8.00;91.80;;;;;;5011246;28;20034;-67
2020/12/18 03:44:43;;;;;;;20.13;11.50;;;8.00;91.80;;;;;;4994695;28;20037;-68
2020/12/18 03:47:10;;;;;;;18.37;11.47;;;8.00;91.70;;;;;;4994240;28;20034;-67
2020/12/18 03:49:45;;;;;;;19.10;11.37;;;8.00;91.70;;;;;;5012085;28;20026;-68
2020/12/18 03:52:11;;;;;;;21.87;11.60;;;8.00;91.70;;;;;;5025896;28;20041;-69
2020/12/18 03:54:42;;;;;;;21.43;12.00;;;8.00;91.70;;;;;;5010927;28;20040;-67
2020/12/18 03:57:39;;;;;;;23.73;12.20;;;8.00;91.90;;;;;;5011631;28;20030;-67
2020/12/18 04:00:33;;;;;;;20.40;11.37;;;8.00;91.70;;;;;;5019264;28;20117;-67
2020/12/18 04:03:06;;;;;;;18.27;10.60;;;8.00;91.70;;;;;;4994501;28;20048;-68
2020/12/18 04:05:33;;;;;;;21.20;11.60;;;8.00;91.70;;;;;;5043170;28;20044;-68
2020/12/18 04:08:01;;;;;;;21.13;10.63;;;8.00;91.70;;;;;;5043425;28;20065;-67
2020/12/18 04:10:58;;;;;;;18.90;11.03;;;8.00;91.70;;;;;;5010025;28;20038;-67
2020/12/18 04:13:50;;;;;;;20.67;11.23;;;8.10;91.60;;;;;;5042289;28;20065;-69
2020/12/18 04:16:18;;;;;;;18.70;11.00;;;8.10;91.50;;;;;;4994328;28;20462;-67
2020/12/18 04:18:44;;;;;;;22.23;11.13;;;8.10;91.50;;;;;;4993789;28;20129;-68
2020/12/18 04:21:12;;;;;;;16.20;10.60;;;8.10;91.50;;;;;;5043137;28;20055;-67
2020/12/18 04:23:45;;;;;;;16.53;10.77;;;8.10;91.50;;;;;;5009567;28;20030;-68
2020/12/18 04:26:18;;;;;;;23.13;11.77;;;8.10;91.40;;;;;;5009942;28;20034;-67
2020/12/18 04:28:45;;;;;;;20.60;11.17;;;8.10;91.40;;;;;;4994091;28;20044;-67
2020/12/18 04:31:13;;;;;;;20.70;11.40;;;8.10;91.50;;;;;;5009849;28;20060;-68
2020/12/18 04:33:39;;;;;;;18.40;11.40;;;8.10;91.40;;;;;;5042656;28;20403;-67
2020/12/18 04:36:05;;;;;;;20.53;11.53;;;8.10;91.30;;;;;;4993237;28;20045;-67
2020/12/18 04:38:35;;;;;;;19.73;11.73;;;8.10;91.30;;;;;;5043117;28;20494;-67
2020/12/18 04:41:06;;;;;;;21.92;11.90;;;8.10;91.30;;;;;;4993963;28;20049;-68
2020/12/18 04:43:49;;;;;;;24.80;11.40;;;8.10;91.30;;;;;;5009377;28;20037;-68
2020/12/18 04:46:23;;;;;;;19.40;11.20;;;8.10;91.30;;;;;;4993994;28;20069;-67
2020/12/18 04:48:51;;;;;;;22.03;11.23;;;8.10;91.30;;;;;;5043068;28;20587;-68
2020/12/18 04:51:27;;;;;;;20.75;11.45;;;8.10;91.30;;;;;;5009495;28;20076;-67
2020/12/18 04:54:08;;;;;;;15.90;11.03;;;8.10;91.30;;;;;;5009726;28;20129;-67
2020/12/18 04:56:49;;;;;;;18.15;11.70;;;8.10;91.20;;;;;;5009337;28;20037;-68
2020/12/18 04:59:23;;;;;;;18.93;10.80;;;8.10;91.20;;;;;;5042854;28;20038;-67
2020/12/18 05:02:24;;;;;;;18.37;11.03;;;8.10;91.10;;;;;;5008977;28;20045;-67
2020/12/18 05:04:56;;;;;;;20.83;10.33;;;8.10;91.10;;;;;;5031288;28;20048;-67
2020/12/18 05:07:48;;;;;;;19.27;11.53;;;8.00;91.00;;;;;;5031274;28;20037;-68
2020/12/18 05:10:14;;;;;;;19.97;11.67;;;8.00;90.90;;;;;;5012657;28;20038;-68
2020/12/18 05:12:55;;;;;;;20.63;11.60;;;7.90;90.90;;;;;;5012305;28;20524;-67
2020/12/18 05:15:34;;;;;;;20.33;10.93;;;7.90;91.00;;;;;;5057800;28;20034;-67
2020/12/18 05:18:22;;;;;;;19.80;10.90;;;7.80;91.30;;;;;;5034334;28;20124;-67
2020/12/18 05:20:49;;;;;;;20.70;11.73;;;7.80;91.20;;;;;;5033448;28;20051;-68
2020/12/18 05:23:34;;;;;;;22.75;11.35;;;7.90;91.30;;;;;;5033703;28;20042;-68
2020/12/18 05:26:10;;;;;;;18.47;10.60;;;7.90;91.30;;;;;;5033041;28;20034;-68
2020/12/18 05:28:47;;;;;;;22.23;10.90;;;7.90;91.20;;;;;;5033160;28;20060;-68
2020/12/18 05:31:18;;;;;;;24.87;10.83;;;8.00;91.20;;;;;;5033258;28;20041;-68
2020/12/18 05:34:04;;;;;;;18.10;10.77;;;7.90;91.20;;;;;;5060860;28;20048;-67
2020/12/18 05:36:42;;;;;;;24.47;11.13;;;8.00;91.20;;;;;;5033011;28;20047;-67
2020/12/18 05:39:11;;;;;;;20.83;10.77;;;8.00;91.20;;;;;;5029263;28;20038;-68
2020/12/18 05:41:42;;;;;;;20.00;11.17;;;8.00;91.20;;;;;;4992554;28;20586;-67
2020/12/18 05:44:09;;;;;;;17.07;9.80;;;8.00;91.20;;;;;;5008388;28;20391;-67
2020/12/18 05:47:10;;;;;;;16.87;10.93;;;8.00;91.10;;;;;;4992364;28;20118;-68
2020/12/18 05:49:40;;;;;;;19.87;11.67;;;8.00;91.00;;;;;;5012923;28;20499;-68
2020/12/18 05:52:20;;;;;;;18.93;11.60;;;8.00;90.90;;;;;;5006061;28;20038;-67
2020/12/18 05:55:01;;;;;;;19.30;10.83;;;7.90;90.90;;;;;;5010062;28;20506;-67
2020/12/18 05:57:39;;;;;;;17.70;11.07;;;7.90;91.00;;;;;;5002591;28;20498;-68
2020/12/18 06:00:11;;;;;;;18.73;10.53;;;7.80;90.80;;;;;;5012234;28;20411;-67
2020/12/18 06:03:11;;;;;;;24.53;11.83;;;7.70;90.60;;;;;;5011700;28;20034;-67
2020/12/18 06:05:46;;;;;;;22.17;11.70;;;7.60;90.50;;;;;;5012770;28;20124;-68
2020/12/18 06:08:19;;;;;;;21.87;12.17;;;7.40;90.50;;;;;;4997263;28;20466;-68
2020/12/18 06:10:54;;;;;;;23.87;12.23;;;7.30;90.60;;;;;;5012654;28;20037;-67
2020/12/18 06:13:24;;;;;;;;;;;7.20;90.70;;;;;;4996411;28;20116;-67
2020/12/18 06:16:09;;;;;;;29.27;13.07;;;7.10;90.70;;;;;;5013317;28;19917;-68
2020/12/18 06:18:46;;;;;;;27.03;14.13;;;7.00;90.80;;;;;;5012559;28;20056;-68
2020/12/18 06:21:22;;;;;;;24.43;13.67;;;6.80;90.80;;;;;;5012243;28;20391;-67
2020/12/18 06:23:49;;;;;;;28.37;14.53;;;6.80;91.00;;;;;;5011976;28;20099;-67
2020/12/18 06:26:38;;;;;;;27.93;14.43;;;6.70;91.00;;;;;;4993897;28;20034;-67
2020/12/18 06:29:27;;;;;;;28.67;15.73;;;6.60;91.00;;;;;;5010092;28;20423;-67
2020/12/18 06:32:31;;;;;;;28.87;15.77;;;6.60;91.10;;;;;;5013141;28;20092;-67
2020/12/18 06:35:35;;;;;;;26.90;15.50;;;6.50;91.20;;;;;;5013159;28;20034;-67
2020/12/18 06:38:20;;;;;;;31.87;16.67;;;6.30;91.20;;;;;;5013277;28;20041;-67
2020/12/18 06:41:22;;;;;;;30.47;16.80;;;6.30;91.30;;;;;;5012894;28;20164;-67
2020/12/18 06:44:39;;;;;;;36.07;17.70;;;6.20;91.40;;;;;;5009693;28;20042;-67
2020/12/18 06:47:27;;;;;;;31.83;17.00;;;6.20;91.50;;;;;;5012753;28;20033;-68
2020/12/18 06:50:14;;;;;;;31.70;16.92;;;6.20;91.60;;;;;;5013304;28;20048;-67
2020/12/18 06:53:14;;;;;;;31.23;17.00;;;6.10;91.60;;;;;;5030538;28;20033;-68
2020/12/18 06:56:03;;;;;;;30.63;16.47;;;6.10;91.70;;;;;;5031180;28;20041;-67
2020/12/18 06:58:34;;;;;;;33.40;17.60;;;6.10;91.60;;;;;;5032912;28;20414;-67
2020/12/18 07:01:00;;;;;;;35.30;17.13;;;6.00;91.70;;;;;;5032333;28;20049;-68
2020/12/18 07:03:37;;;;;;;34.10;17.60;;;6.00;91.80;;;;;;5032161;28;20034;-68
2020/12/18 07:06:05;;;;;;;31.03;16.60;;;6.00;92.00;;;;;;5032169;28;20052;-67
2020/12/18 07:08:33;;;;;;;34.07;17.73;;;6.00;91.90;;;;;;5031271;28;20037;-67
2020/12/18 07:11:01;;;;;;;36.10;18.60;;;5.90;91.80;;;;;;5031437;28;20520;-68
2020/12/18 07:13:29;;;;;;;36.47;19.03;;;5.90;92.00;;;;;;5031497;28;20041;-68
2020/12/18 07:15:58;;;;;;;39.93;19.23;;;5.90;92.10;;;;;;5032408;28;20073;-67
2020/12/18 07:18:32;;;;;;;38.30;19.20;;;5.80;92.10;;;;;;5030563;28;20490;-67
2020/12/18 07:21:09;;;;;;;38.80;18.40;;;5.80;92.20;;;;;;5031020;28;20124;-67
2020/12/18 07:23:37;;;;;;;40.37;18.87;;;5.80;92.20;;;;;;5030052;28;20034;-68
2020/12/18 07:26:04;;;;;;;39.30;18.83;;;5.80;92.10;;;;;;5032092;28;20057;-67
2020/12/18 07:28:31;;;;;;;39.57;19.03;;;5.80;92.20;;;;;;5031501;28;20065;-67
2020/12/18 07:30:58;;;;;;;38.43;18.13;;;5.80;92.30;;;;;;5031753;28;20484;-67
2020/12/18 07:33:25;;;;;;;32.53;18.07;;;5.80;92.40;;;;;;5030549;28;20421;-69
2020/12/18 07:35:54;;;;;;;37.83;18.53;;;5.80;92.40;;;;;;5032054;28;20471;-69
2020/12/18 07:38:27;;;;;;;35.73;17.10;;;5.80;92.40;;;;;;5030881;28;20124;-74
2020/12/18 07:41:14;;;;;;;36.67;17.80;;;5.70;92.60;;;;;;5032030;28;20522;-74
2020/12/18 07:43:45;;;;;;;38.23;17.83;;;5.80;92.60;;;;;;5030927;28;20052;-74
2020/12/18 07:46:13;;;;;;;35.85;18.33;;;5.80;92.50;;;;;;5031021;28;20579;-74
2020/12/18 07:48:41;;;;;;;43.33;18.17;;;5.80;92.50;;;;;;5029958;28;20037;-74
2020/12/18 07:51:21;;;;;;;38.87;16.53;;;5.80;92.60;;;;;;5031593;28;20040;-74
2020/12/18 07:53:51;;;;;;;35.80;17.03;;;5.80;92.60;;;;;;5030710;28;20029;-73
2020/12/18 07:56:18;;;;;;;35.22;17.15;;;5.80;92.70;;;;;;5031629;28;20048;-74
2020/12/18 07:58:45;;;;;;;34.53;15.53;;;5.80;92.70;;;;;;5031759;28;20030;-74
2020/12/18 08:01:14;;;;;;;33.67;16.20;;;5.80;92.80;;;;;;5031417;28;20037;-74
2020/12/18 08:03:45;;;;;;;31.27;15.17;;;5.80;92.70;;;;;;5029683;28;20041;-74
2020/12/18 08:06:16;;;;;;;35.40;16.63;;;5.80;92.80;;;;;;5031084;28;20125;-74
2020/12/18 08:08:48;;;;;;;31.50;15.87;;;5.80;92.80;;;;;;5004724;28;20030;-74
2020/12/18 08:11:15;;;;;;;32.27;15.60;;;5.90;92.90;;;;;;5018991;28;20546;-74
2020/12/18 08:13:42;;;;;;;31.43;15.20;;;5.90;92.90;;;;;;5016469;28;20125;-74
2020/12/18 08:16:19;;;;;;;31.27;15.17;;;5.90;92.90;;;;;;5030792;28;20099;-74
2020/12/18 08:18:53;;;;;;;29.77;14.53;;;6.00;93.00;;;;;;5048017;28;20438;-74
2020/12/18 08:21:30;;;;;;;28.20;14.33;;;6.00;93.00;;;;;;5012295;28;20397;-73
2020/12/18 08:24:40;;;;;;;25.90;14.40;;;6.00;93.00;;;;;;5013517;28;20048;-74
2020/12/18 08:27:21;;;;;;;29.63;13.15;;;6.10;93.00;;;;;;4990198;28;20033;-74
2020/12/18 08:29:48;;;;;;;;;;;6.10;93.00;;;;;;5010913;28;20046;-74
2020/12/18 08:32:28;;;;;;;24.50;12.50;;;6.10;93.00;;;;;;5011453;28;20388;-74
2020/12/18 08:35:02;;;;;;;26.75;12.63;;;6.20;93.10;;;;;;5014733;28;20038;-73
2020/12/18 08:37:28;;;;;;;25.87;11.90;;;6.20;93.00;;;;;;5013243;28;20033;-74
2020/12/18 08:39:55;;;;;;;27.10;12.90;;;6.20;93.00;;;;;;5010480;28;20122;-74
2020/12/18 08:42:21;;;;;;;21.30;11.53;;;6.30;93.10;;;;;;5013439;28;20045;-74
2020/12/18 08:44:47;;;;;;;24.93;11.77;;;6.30;93.10;;;;;;5019058;28;20029;-74
2020/12/18 08:47:17;;;;;;;20.60;10.43;;;6.40;93.10;;;;;;5018033;28;20533;-73
2020/12/18 08:49:43;;;;;;;20.92;10.20;;;6.40;93.00;;;;;;5025430;28;20034;-74
2020/12/18 08:52:09;;;;;;;19.60;10.33;;;6.40;92.90;;;;;;5011628;28;20099;-71
2020/12/18 08:54:38;;;;;;;25.27;11.57;;;6.40;93.00;;;;;;5022092;28;20034;-74
2020/12/18 08:57:10;;;;;;;19.83;10.20;;;6.40;93.00;;;;;;5003704;28;20087;-74
2020/12/18 08:59:36;;;;;;;19.70;10.00;;;6.50;93.20;;;;;;5014761;28;20526;-74
2020/12/18 09:02:02;;;;;;;21.87;9.87;;;6.60;93.20;;;;;;5028638;28;20552;-74
2020/12/18 09:04:28;;;;;;;16.87;9.00;;;6.60;93.20;;;;;;5021737;28;20113;-67
2020/12/18 09:06:54;;;;;;;16.03;8.40;;;6.70;93.20;;;;;;5007933;28;20113;-67
2020/12/18 09:09:20;;;;;;;21.00;8.70;;;6.70;93.10;;;;;;5010708;28;20045;-67
2020/12/18 09:11:49;;;;;;;21.07;8.53;;;6.80;93.10;;;;;;5008643;28;20503;-67
2020/12/18 09:14:27;;;;;;;17.87;8.17;;;6.90;93.00;;;;;;5025641;28;21221;-67
2020/12/18 09:16:57;;;;;;;15.20;7.80;;;6.90;93.00;;;;;;5013047;28;20037;-67
2020/12/18 09:19:23;;;;;;;17.08;7.70;;;7.00;93.10;;;;;;5010703;28;20033;-67
2020/12/18 09:21:49;;;;;;;14.83;7.57;;;7.10;93.30;;;;;;5009733;28;20037;-67
2020/12/18 09:24:16;;;;;;;16.23;7.80;;;7.40;93.40;;;;;;5017053;28;20091;-67
2020/12/18 09:26:42;;;;;;;16.80;7.13;;;7.60;93.50;;;;;;5020583;28;20168;-67
2020/12/18 09:29:16;;;;;;;14.77;6.73;;;7.90;93.30;;;;;;4993243;28;20061;-67
2020/12/18 09:31:43;;;;;;;14.33;7.03;;;8.20;92.50;;;;;;5009189;28;20057;-67
2020/12/18 09:34:15;;;;;;;15.43;6.37;;;8.30;92.50;;;;;;5009254;28;20034;-67
2020/12/18 09:36:42;;;;;;;11.83;6.40;;;8.60;92.20;;;;;;5009576;28;20402;-67
2020/12/18 09:39:08;;;;;;;12.97;6.50;;;9.00;91.70;;;;;;5009028;28;20120;-67
2020/12/18 09:41:34;;;;;;;12.20;6.30;;;9.30;91.10;;;;;;5007636;28;20038;-68
2020/12/18 09:44:00;;;;;;;13.87;6.23;;;9.60;90.80;;;;;;5008690;28;20148;-67
2020/12/18 09:46:26;;;;;;;13.67;6.00;;;9.80;90.30;;;;;;5015228;28;20092;-68
2020/12/18 09:48:52;;;;;;;14.73;6.20;;;9.90;88.80;;;;;;5019973;28;20033;-67
2020/12/18 09:51:19;;;;;;;12.70;5.87;;;9.70;89.00;;;;;;5016345;28;20033;-67
2020/12/18 09:53:48;;;;;;;13.80;6.38;;;9.40;89.20;;;;;;5022852;28;20041;-67
2020/12/18 09:56:18;;;;;;;12.43;5.75;;;9.10;90.00;;;;;;5025477;28;20044;-67
2020/12/18 09:58:44;;;;;;;13.45;6.13;;;8.90;89.90;;;;;;5016510;28;20045;-67
2020/12/18 10:01:15;;;;;;;12.27;5.77;;;8.60;90.10;;;;;;5031198;28;20046;-68
2020/12/18 10:03:40;;;;;;;;;;;8.50;90.20;;;;;;5023550;28;20045;-67
2020/12/18 10:06:06;;;;;;;13.33;6.20;;;8.30;90.40;;;;;;5025840;28;19959;-67
2020/12/18 10:08:32;;;;;;;11.83;6.00;;;8.20;90.50;;;;;;5016261;28;20034;-67
2020/12/18 10:10:58;;;;;;;12.57;6.23;;;8.10;90.50;;;;;;5029715;28;20745;-67
2020/12/18 10:13:24;;;;;;;11.50;6.10;;;8.00;90.60;;;;;;5019021;28;20121;-67
2020/12/18 10:15:50;;;;;;;13.40;6.33;;;7.90;90.70;;;;;;5022492;28;20116;-67
2020/12/18 10:18:16;;;;;;;10.77;5.97;;;7.90;90.80;;;;;;5020221;28;20034;-68
2020/12/18 10:20:43;;;;;;;12.63;6.30;;;7.90;90.90;;;;;;5031152;28;20414;-66
2020/12/18 10:23:09;;;;;;;12.07;6.00;;;7.90;91.10;;;;;;5024726;28;20042;-67
2020/12/18 10:25:35;;;;;;;11.33;5.90;;;8.10;91.50;;;;;;5022784;28;20072;-67
2020/12/18 10:28:02;;;;;;;10.33;5.33;;;8.30;91.00;;;;;;5010307;28;20036;-67
2020/12/18 10:30:28;;;;;;;12.17;5.83;;;8.60;90.90;;;;;;5016580;28;20112;-67
2020/12/18 10:32:54;;;;;;;11.57;5.40;;;8.90;90.90;;;;;;5027553;28;20513;-68
2020/12/18 10:35:20;;;;;;;11.30;5.23;;;9.10;90.60;;;;;;5019514;28;20026;-67
2020/12/18 10:37:47;;;;;;;12.43;5.33;;;9.20;90.40;;;;;;5004849;28;20134;-68
2020/12/18 10:40:14;;;;;;;15.15;7.82;;;9.40;90.10;;;;;;5027908;28;20539;-67
2020/12/18 10:42:41;;;;;;;14.15;6.30;;;9.50;89.80;;;;;;5015581;28;20129;-67
2020/12/18 10:45:07;;;;;;;15.38;6.22;;;9.50;89.20;;;;;;5026139;28;20038;-67
2020/12/18 10:47:33;;;;;;;10.60;5.15;;;9.40;89.30;;;;;;5021592;28;20076;-67
2020/12/18 10:49:59;;;;;;;14.10;6.53;;;9.50;89.10;;;;;;5019034;28;20038;-68
2020/12/18 10:52:25;;;;;;;10.55;4.80;;;9.80;88.40;;;;;;5010655;28;20033;-67
2020/12/18 10:54:52;;;;;;;12.02;5.38;;;10.20;87.20;;;;;;5015331;28;20690;-68
2020/12/18 10:57:18;;;;;;;11.68;5.15;;;10.50;85.70;;;;;;5026197;28;20402;-67
2020/12/18 10:59:44;;;;;;;11.82;4.80;;;10.60;84.20;;;;;;4984206;28;20034;-67
2020/12/18 11:02:10;;;;;;;11.07;4.60;;;10.60;83.00;;;;;;5019760;28;20457;-67
2020/12/18 11:04:36;;;;;;;10.80;5.13;;;10.40;83.30;;;;;;5015789;28;20030;-67
2020/12/18 11:07:02;;;;;;;14.75;5.60;;;10.10;84.20;;;;;;5026295;28;20098;-67
2020/12/18 11:09:28;;;;;;;12.07;4.72;;;9.90;85.20;;;;;;5021017;28;20092;-67
2020/12/18 11:11:57;;;;;;;15.68;6.20;;;9.70;86.30;;;;;;4990234;28;20433;-68
2020/12/18 11:14:24;;;;;;;9.00;4.40;;;9.70;87.20;;;;;;5015152;28;20128;-67
2020/12/18 11:16:53;;;;;;;12.90;4.40;;;9.60;87.30;;;;;;5026205;28;20038;-67
2020/12/18 11:19:19;;;;;;;13.30;5.50;;;9.60;87.10;;;;;;5026638;28;20057;-67
2020/12/18 11:21:49;;;;;;;10.40;3.92;;;9.60;87.40;;;;;;5024041;28;20077;-68
2020/12/18 11:24:14;;;;;;;7.00;3.50;;;9.70;87.90;;;;;;5011833;28;20048;-67
2020/12/18 11:26:42;;;;;;;9.25;3.58;;;9.90;88.10;;;;;;5025746;28;20103;-68
2020/12/18 11:29:08;;;;;;;13.48;6.00;;;10.10;88.00;;;;;;5018429;28;20041;-67
2020/12/18 11:31:40;;;;;;;11.02;4.55;;;10.20;87.30;;;;;;5028533;28;20128;-68
2020/12/18 11:34:06;;;;;;;10.68;3.50;;;10.30;86.50;;;;;;5019872;28;20046;-67
2020/12/18 11:36:33;;;;;;;10.07;3.58;;;10.40;86.50;;;;;;5010027;28;20099;-66
2020/12/18 11:38:59;;;;;;;11.73;3.83;;;10.40;85.10;;;;;;5008228;28;20505;-67
2020/12/18 11:41:25;;;;;;;8.13;3.42;;;10.30;84.60;;;;;;5017526;28;20041;-67
2020/12/18 11:43:51;;;;;;;10.65;3.83;;;10.10;84.60;;;;;;5021045;28;20038;-67
2020/12/18 11:46:16;;;;;;;8.75;3.67;;;10.00;84.90;;;;;;5019499;28;20041;-67
2020/12/18 11:48:42;;;;;;;10.73;3.20;;;9.80;85.00;;;;;;5010719;28;20053;-67
2020/12/18 11:51:08;;;;;;;12.93;3.45;;;9.80;85.30;;;;;;5015053;28;20048;-66
2020/12/18 11:53:36;;;;;;;13.48;4.93;;;9.70;85.80;;;;;;5018194;28;20030;-66
2020/12/18 11:56:03;;;;;;;9.98;3.15;;;9.70;85.60;;;;;;5012751;28;20457;-67
2020/12/18 11:58:29;;;;;;;10.65;3.83;;;9.70;85.50;;;;;;5009092;28;20096;-67
2020/12/18 12:00:56;;;;;;;30.50;12.20;;;9.80;85.70;;;;;;5008976;28;20069;-67
2020/12/18 12:03:22;;;;;;;11.23;3.67;;;10.00;86.00;;;;;;5009326;28;20046;-68
2020/12/18 12:05:48;;;;;;;10.45;2.80;;;10.40;86.00;;;;;;5009216;28;20033;-67
2020/12/18 12:08:14;;;;;;;10.48;3.08;;;10.80;86.10;;;;;;5009040;28;20445;-67
2020/12/18 12:10:40;;;;;;;11.18;4.55;;;11.30;87.30;;;;;;5010121;28;20109;-68
2020/12/18 12:13:05;;;;;;;8.65;3.65;;;11.60;87.20;;;;;;5006418;28;20554;-68
2020/12/18 12:15:31;;;;;;;12.23;3.67;;;11.70;86.00;;;;;;5009386;28;20100;-68
2020/12/18 12:17:57;;;;;;;10.70;3.13;;;11.90;84.20;;;;;;5008696;28;20092;-67
2020/12/18 12:20:23;;;;;;;11.13;3.25;;;12.00;82.60;;;;;;5009106;28;20058;-67
2020/12/18 12:22:49;;;;;;;10.88;3.97;;;12.00;80.20;;;;;;5009087;28;20077;-68
2020/12/18 12:25:15;;;;;;;10.57;4.05;;;11.80;80.50;;;;;;5010954;28;20080;-67
2020/12/18 12:27:41;;;;;;;10.85;3.97;;;11.90;81.00;;;;;;5028737;28;20072;-67
2020/12/18 12:30:09;;;;;;;10.20;4.45;;;12.40;80.80;;;;;;5027742;28;20038;-68
2020/12/18 12:32:35;;;;;;;10.52;4.38;;;13.00;79.90;;;;;;5028067;28;20084;-67
2020/12/18 12:35:01;;;;;;;10.90;3.80;;;13.40;78.00;;;;;;5029152;28;20033;-68
2020/12/18 12:37:27;;;;;;;8.85;3.28;;;13.40;76.00;;;;;;5029194;28;20113;-68
2020/12/18 12:39:53;;;;;;;8.18;3.47;;;13.40;76.50;;;;;;5015226;28;20459;-67
2020/12/18 12:42:18;;;;;;;11.02;4.32;;;13.20;75.80;;;;;;5010692;28;20045;-68
2020/12/18 12:44:44;;;;;;;11.07;4.72;;;12.90;75.80;;;;;;5008638;28;20033;-68
2020/12/18 12:47:10;;;;;;;8.45;3.53;;;12.70;74.90;;;;;;5010050;28;20113;-68
2020/12/18 12:49:36;;;;;;;10.65;3.17;;;12.20;74.70;;;;;;5010264;28;20030;-68
2020/12/18 12:52:02;;;;;;;10.38;3.40;;;11.90;75.20;;;;;;5008296;28;20542;-67
2020/12/18 12:54:28;;;;;;;8.65;3.58;;;11.50;76.00;;;;;;5010333;28;20034;-67
2020/12/18 12:56:53;;;;;;;9.10;3.25;;;11.50;77.40;;;;;;5009858;28;20514;-67
2020/12/18 12:59:20;;;;;;;10.15;3.50;;;11.70;77.90;;;;;;5010217;28;20551;-67
2020/12/18 13:01:46;;;;;;;10.02;3.13;;;11.90;77.80;;;;;;5008349;28;20034;-67